sensor_id;sensor_type;location;lat;lon;timestamp;P1;durP1;ratioP1;P2;durP2;ratioP2
5813;SDS011;2933;52.302;8.134;2022-11-14T00:00:08;54.40;;;20.00;;
5813;SDS011;2933;52.302;8.134;2022-11-14T00:05:13;57.90;;;21.77;;
5813;SDS011;2933;52.302;8.134;2022-11-14T00:10:15;62.87;;;21.87;;
5813;SDS011;2933;52.302;8.134;2022-11-14T00:15:17;74.77;;;22.10;;
5813;SDS011;2933;52.302;8.134;2022-11-14T00:20:20;58.67;;;21.17;;
5813;SDS011;2933;52.302;8.134;2022-11-14T00:25:21;58.80;;;22.37;;
5813;SDS011;2933;52.302;8.134;2022-11-14T00:30:23;53.30;;;21.23;;
5813;SDS011;2933;52.302;8.134;2022-11-14T00:35:26;64.40;;;22.80;;
5813;SDS011;2933;52.302;8.134;2022-11-14T00:40:28;58.33;;;23.23;;
5813;SDS011;2933;52.302;8.134;2022-11-14T00:45:29;66.87;;;23.60;;
5813;SDS011;2933;52.302;8.134;2022-11-14T00:50:32;60.07;;;22.73;;
5813;SDS011;2933;52.302;8.134;2022-11-14T00:55:34;64.93;;;24.50;;
5813;SDS011;2933;52.302;8.134;2022-11-14T01:00:36;68.20;;;23.87;;
5813;SDS011;2933;52.302;8.134;2022-11-14T01:05:42;60.60;;;23.97;;
5813;SDS011;2933;52.302;8.134;2022-11-14T01:10:48;61.23;;;25.10;;
5813;SDS011;2933;52.302;8.134;2022-11-14T01:15:51;67.50;;;24.03;;
5813;SDS011;2933;52.302;8.134;2022-11-14T01:20:55;63.33;;;23.80;;
5813;SDS011;2933;52.302;8.134;2022-11-14T01:26:00;55.37;;;23.30;;
5813;SDS011;2933;52.302;8.134;2022-11-14T01:31:09;65.80;;;26.03;;
5813;SDS011;2933;52.302;8.134;2022-11-14T01:36:13;57.30;;;23.77;;
5813;SDS011;2933;52.302;8.134;2022-11-14T01:41:14;66.10;;;23.77;;
5813;SDS011;2933;52.302;8.134;2022-11-14T01:46:18;66.10;;;22.40;;
5813;SDS011;2933;52.302;8.134;2022-11-14T01:51:26;53.57;;;21.37;;
5813;SDS011;2933;52.302;8.134;2022-11-14T01:56:30;62.50;;;23.07;;
5813;SDS011;2933;52.302;8.134;2022-11-14T02:01:37;58.27;;;23.23;;
5813;SDS011;2933;52.302;8.134;2022-11-14T02:06:47;64.67;;;23.20;;
5813;SDS011;2933;52.302;8.134;2022-11-14T02:11:49;66.10;;;25.03;;
5813;SDS011;2933;52.302;8.134;2022-11-14T02:16:52;64.50;;;23.60;;
5813;SDS011;2933;52.302;8.134;2022-11-14T02:21:56;54.30;;;23.20;;
5813;SDS011;2933;52.302;8.134;2022-11-14T02:26:58;51.00;;;19.63;;
5813;SDS011;2933;52.302;8.134;2022-11-14T02:32:00;55.47;;;22.63;;
5813;SDS011;2933;52.302;8.134;2022-11-14T02:37:03;54.67;;;21.00;;
5813;SDS011;2933;52.302;8.134;2022-11-14T02:42:05;51.63;;;21.33;;
5813;SDS011;2933;52.302;8.134;2022-11-14T02:47:07;55.63;;;21.80;;
5813;SDS011;2933;52.302;8.134;2022-11-14T02:52:10;51.63;;;21.70;;
5813;SDS011;2933;52.302;8.134;2022-11-14T02:57:11;56.63;;;22.50;;
5813;SDS011;2933;52.302;8.134;2022-11-14T03:02:13;51.40;;;23.27;;
5813;SDS011;2933;52.302;8.134;2022-11-14T03:07:16;55.10;;;22.63;;
5813;SDS011;2933;52.302;8.134;2022-11-14T03:12:17;48.80;;;21.70;;
5813;SDS011;2933;52.302;8.134;2022-11-14T03:17:19;61.13;;;22.37;;
5813;SDS011;2933;52.302;8.134;2022-11-14T03:22:25;67.10;;;23.60;;
5813;SDS011;2933;52.302;8.134;2022-11-14T03:27:26;47.57;;;21.63;;
5813;SDS011;2933;52.302;8.134;2022-11-14T03:32:28;61.97;;;20.20;;
5813;SDS011;2933;52.302;8.134;2022-11-14T03:37:31;59.77;;;20.93;;
5813;SDS011;2933;52.302;8.134;2022-11-14T03:42:33;45.97;;;20.40;;
5813;SDS011;2933;52.302;8.134;2022-11-14T03:47:35;48.37;;;22.17;;
5813;SDS011;2933;52.302;8.134;2022-11-14T03:52:38;62.97;;;22.97;;
5813;SDS011;2933;52.302;8.134;2022-11-14T03:57:39;51.60;;;22.63;;
5813;SDS011;2933;52.302;8.134;2022-11-14T04:02:41;49.40;;;21.90;;
5813;SDS011;2933;52.302;8.134;2022-11-14T04:07:44;49.70;;;20.43;;
5813;SDS011;2933;52.302;8.134;2022-11-14T04:12:46;49.67;;;21.00;;
5813;SDS011;2933;52.302;8.134;2022-11-14T04:17:49;59.20;;;22.20;;
5813;SDS011;2933;52.302;8.134;2022-11-14T04:22:52;51.87;;;20.93;;
5813;SDS011;2933;52.302;8.134;2022-11-14T04:27:54;43.53;;;18.50;;
5813;SDS011;2933;52.302;8.134;2022-11-14T04:32:56;49.30;;;19.67;;
5813;SDS011;2933;52.302;8.134;2022-11-14T04:37:58;46.47;;;19.30;;
5813;SDS011;2933;52.302;8.134;2022-11-14T04:43:00;47.60;;;20.40;;
5813;SDS011;2933;52.302;8.134;2022-11-14T04:48:02;46.77;;;19.77;;
5813;SDS011;2933;52.302;8.134;2022-11-14T04:53:05;45.33;;;18.53;;
5813;SDS011;2933;52.302;8.134;2022-11-14T04:58:07;45.10;;;18.20;;
5813;SDS011;2933;52.302;8.134;2022-11-14T05:03:09;43.50;;;19.43;;
5813;SDS011;2933;52.302;8.134;2022-11-14T05:08:12;48.80;;;17.67;;
5813;SDS011;2933;52.302;8.134;2022-11-14T05:13:14;43.53;;;17.83;;
5813;SDS011;2933;52.302;8.134;2022-11-14T05:18:15;46.43;;;18.67;;
5813;SDS011;2933;52.302;8.134;2022-11-14T05:23:19;42.17;;;19.10;;
5813;SDS011;2933;52.302;8.134;2022-11-14T05:28:21;47.50;;;19.67;;
5813;SDS011;2933;52.302;8.134;2022-11-14T05:33:23;52.20;;;17.80;;
5813;SDS011;2933;52.302;8.134;2022-11-14T05:38:26;43.53;;;18.80;;
5813;SDS011;2933;52.302;8.134;2022-11-14T05:43:28;43.60;;;18.43;;
5813;SDS011;2933;52.302;8.134;2022-11-14T05:48:30;41.40;;;17.70;;
5813;SDS011;2933;52.302;8.134;2022-11-14T05:53:33;41.77;;;16.80;;
5813;SDS011;2933;52.302;8.134;2022-11-14T05:58:35;41.33;;;17.40;;
5813;SDS011;2933;52.302;8.134;2022-11-14T06:03:37;34.70;;;16.40;;
5813;SDS011;2933;52.302;8.134;2022-11-14T06:08:41;42.93;;;17.30;;
5813;SDS011;2933;52.302;8.134;2022-11-14T06:13:43;45.53;;;16.70;;
5813;SDS011;2933;52.302;8.134;2022-11-14T06:18:45;41.43;;;16.67;;
5813;SDS011;2933;52.302;8.134;2022-11-14T06:23:48;41.90;;;17.37;;
5813;SDS011;2933;52.302;8.134;2022-11-14T06:28:51;33.97;;;14.97;;
5813;SDS011;2933;52.302;8.134;2022-11-14T06:33:53;38.00;;;16.50;;
5813;SDS011;2933;52.302;8.134;2022-11-14T06:38:57;38.93;;;15.53;;
5813;SDS011;2933;52.302;8.134;2022-11-14T06:43:59;42.23;;;16.90;;
5813;SDS011;2933;52.302;8.134;2022-11-14T06:49:01;34.37;;;14.47;;
5813;SDS011;2933;52.302;8.134;2022-11-14T06:54:04;37.07;;;14.90;;
5813;SDS011;2933;52.302;8.134;2022-11-14T06:59:05;36.90;;;16.30;;
5813;SDS011;2933;52.302;8.134;2022-11-14T07:04:08;36.40;;;14.93;;
5813;SDS011;2933;52.302;8.134;2022-11-14T07:09:11;35.80;;;13.87;;
5813;SDS011;2933;52.302;8.134;2022-11-14T07:14:13;32.60;;;14.13;;
5813;SDS011;2933;52.302;8.134;2022-11-14T07:19:14;37.93;;;15.30;;
5813;SDS011;2933;52.302;8.134;2022-11-14T07:24:19;34.83;;;16.00;;
5813;SDS011;2933;52.302;8.134;2022-11-14T07:29:21;37.70;;;16.00;;
5813;SDS011;2933;52.302;8.134;2022-11-14T07:34:22;37.27;;;15.40;;
5813;SDS011;2933;52.302;8.134;2022-11-14T07:39:25;35.33;;;14.57;;
5813;SDS011;2933;52.302;8.134;2022-11-14T07:44:27;40.10;;;15.63;;
5813;SDS011;2933;52.302;8.134;2022-11-14T07:49:28;44.90;;;17.87;;
5813;SDS011;2933;52.302;8.134;2022-11-14T07:54:32;41.33;;;17.00;;
5813;SDS011;2933;52.302;8.134;2022-11-14T07:59:33;33.77;;;15.97;;
5813;SDS011;2933;52.302;8.134;2022-11-14T08:04:35;40.83;;;16.37;;
5813;SDS011;2933;52.302;8.134;2022-11-14T08:09:38;44.53;;;17.37;;
5813;SDS011;2933;52.302;8.134;2022-11-14T08:14:39;43.40;;;16.93;;
5813;SDS011;2933;52.302;8.134;2022-11-14T08:19:41;41.33;;;16.90;;
5813;SDS011;2933;52.302;8.134;2022-11-14T08:24:44;35.30;;;16.90;;
5813;SDS011;2933;52.302;8.134;2022-11-14T08:29:46;44.63;;;15.33;;
5813;SDS011;2933;52.302;8.134;2022-11-14T08:34:47;39.57;;;17.50;;
5813;SDS011;2933;52.302;8.134;2022-11-14T08:39:50;34.07;;;15.80;;
5813;SDS011;2933;52.302;8.134;2022-11-14T08:44:52;35.20;;;15.37;;
5813;SDS011;2933;52.302;8.134;2022-11-14T08:49:54;37.87;;;16.00;;
5813;SDS011;2933;52.302;8.134;2022-11-14T08:54:57;44.23;;;17.20;;
5813;SDS011;2933;52.302;8.134;2022-11-14T08:59:59;41.37;;;16.43;;
5813;SDS011;2933;52.302;8.134;2022-11-14T09:05:00;36.37;;;16.23;;
5813;SDS011;2933;52.302;8.134;2022-11-14T09:10:04;38.53;;;16.87;;
5813;SDS011;2933;52.302;8.134;2022-11-14T09:15:06;36.47;;;15.93;;
5813;SDS011;2933;52.302;8.134;2022-11-14T09:20:08;40.30;;;15.97;;
5813;SDS011;2933;52.302;8.134;2022-11-14T09:25:12;36.03;;;15.90;;
5813;SDS011;2933;52.302;8.134;2022-11-14T09:30:14;36.67;;;16.60;;
5813;SDS011;2933;52.302;8.134;2022-11-14T09:35:16;28.47;;;14.00;;
5813;SDS011;2933;52.302;8.134;2022-11-14T09:40:18;27.50;;;13.63;;
5813;SDS011;2933;52.302;8.134;2022-11-14T09:45:20;33.27;;;13.27;;
5813;SDS011;2933;52.302;8.134;2022-11-14T09:50:23;27.40;;;12.83;;
5813;SDS011;2933;52.302;8.134;2022-11-14T09:55:30;24.20;;;13.00;;
5813;SDS011;2933;52.302;8.134;2022-11-14T10:00:37;28.50;;;14.23;;
5813;SDS011;2933;52.302;8.134;2022-11-14T10:05:57;26.30;;;12.47;;
5813;SDS011;2933;52.302;8.134;2022-11-14T10:11:13;24.30;;;11.90;;
5813;SDS011;2933;52.302;8.134;2022-11-14T10:16:22;22.77;;;11.33;;
5813;SDS011;2933;52.302;8.134;2022-11-14T10:21:36;23.10;;;11.17;;
5813;SDS011;2933;52.302;8.134;2022-11-14T10:26:48;22.27;;;11.20;;
5813;SDS011;2933;52.302;8.134;2022-11-14T10:32:00;20.10;;;10.83;;
5813;SDS011;2933;52.302;8.134;2022-11-14T10:37:14;17.87;;;10.00;;
5813;SDS011;2933;52.302;8.134;2022-11-14T10:42:23;19.43;;;11.03;;
5813;SDS011;2933;52.302;8.134;2022-11-14T10:47:32;17.80;;;10.30;;
5813;SDS011;2933;52.302;8.134;2022-11-14T10:52:40;16.13;;;9.10;;
5813;SDS011;2933;52.302;8.134;2022-11-14T10:57:46;19.50;;;10.80;;
5813;SDS011;2933;52.302;8.134;2022-11-14T11:02:49;17.90;;;9.80;;
5813;SDS011;2933;52.302;8.134;2022-11-14T11:07:52;19.30;;;10.60;;
5813;SDS011;2933;52.302;8.134;2022-11-14T11:13:13;17.87;;;9.60;;
5813;SDS011;2933;52.302;8.134;2022-11-14T11:18:31;23.00;;;11.00;;
5813;SDS011;2933;52.302;8.134;2022-11-14T11:23:34;20.47;;;10.63;;
5813;SDS011;2933;52.302;8.134;2022-11-14T11:28:38;19.07;;;11.00;;
5813;SDS011;2933;52.302;8.134;2022-11-14T11:33:40;18.97;;;11.73;;
5813;SDS011;2933;52.302;8.134;2022-11-14T11:38:42;17.97;;;10.40;;
5813;SDS011;2933;52.302;8.134;2022-11-14T11:43:47;19.70;;;10.73;;
5813;SDS011;2933;52.302;8.134;2022-11-14T11:48:55;18.83;;;10.37;;
5813;SDS011;2933;52.302;8.134;2022-11-14T11:54:03;19.40;;;10.00;;
5813;SDS011;2933;52.302;8.134;2022-11-14T11:59:18;17.70;;;10.20;;
5813;SDS011;2933;52.302;8.134;2022-11-14T12:04:27;21.40;;;11.30;;
5813;SDS011;2933;52.302;8.134;2022-11-14T12:09:30;27.50;;;10.57;;
5813;SDS011;2933;52.302;8.134;2022-11-14T12:14:41;20.73;;;10.87;;
5813;SDS011;2933;52.302;8.134;2022-11-14T12:20:00;29.27;;;11.67;;
5813;SDS011;2933;52.302;8.134;2022-11-14T12:25:32;19.10;;;10.17;;
5813;SDS011;2933;52.302;8.134;2022-11-14T12:30:44;20.13;;;10.90;;
5813;SDS011;2933;52.302;8.134;2022-11-14T12:35:49;21.50;;;11.03;;
5813;SDS011;2933;52.302;8.134;2022-11-14T12:40:54;16.00;;;10.07;;
5813;SDS011;2933;52.302;8.134;2022-11-14T12:46:00;17.80;;;10.67;;
5813;SDS011;2933;52.302;8.134;2022-11-14T12:51:03;16.77;;;9.83;;
5813;SDS011;2933;52.302;8.134;2022-11-14T12:56:10;15.47;;;9.30;;
5813;SDS011;2933;52.302;8.134;2022-11-14T13:01:42;21.33;;;10.90;;
5813;SDS011;2933;52.302;8.134;2022-11-14T13:06:54;15.47;;;9.60;;
5813;SDS011;2933;52.302;8.134;2022-11-14T13:12:23;15.17;;;8.63;;
5813;SDS011;2933;52.302;8.134;2022-11-14T13:17:46;16.93;;;8.90;;
5813;SDS011;2933;52.302;8.134;2022-11-14T13:28:55;15.33;;;9.23;;
5813;SDS011;2933;52.302;8.134;2022-11-14T13:34:00;14.77;;;9.23;;
5813;SDS011;2933;52.302;8.134;2022-11-14T13:39:31;13.93;;;9.23;;
5813;SDS011;2933;52.302;8.134;2022-11-14T13:44:51;17.20;;;9.73;;
5813;SDS011;2933;52.302;8.134;2022-11-14T13:50:06;14.93;;;8.70;;
5813;SDS011;2933;52.302;8.134;2022-11-14T13:55:17;16.10;;;9.30;;
5813;SDS011;2933;52.302;8.134;2022-11-14T14:00:20;12.93;;;8.30;;
5813;SDS011;2933;52.302;8.134;2022-11-14T14:05:29;12.43;;;8.60;;
5813;SDS011;2933;52.302;8.134;2022-11-14T14:10:40;13.53;;;8.10;;
5813;SDS011;2933;52.302;8.134;2022-11-14T14:15:51;20.53;;;9.07;;
5813;SDS011;2933;52.302;8.134;2022-11-14T14:21:08;15.90;;;9.50;;
5813;SDS011;2933;52.302;8.134;2022-11-14T14:26:18;15.47;;;8.60;;
5813;SDS011;2933;52.302;8.134;2022-11-14T14:31:31;11.03;;;7.97;;
5813;SDS011;2933;52.302;8.134;2022-11-14T14:36:37;16.77;;;8.93;;
5813;SDS011;2933;52.302;8.134;2022-11-14T14:41:49;12.37;;;8.40;;
5813;SDS011;2933;52.302;8.134;2022-11-14T14:46:52;12.60;;;7.67;;
5813;SDS011;2933;52.302;8.134;2022-11-14T14:51:55;15.60;;;8.50;;
5813;SDS011;2933;52.302;8.134;2022-11-14T14:56:58;15.50;;;8.40;;
5813;SDS011;2933;52.302;8.134;2022-11-14T15:02:01;12.37;;;8.40;;
5813;SDS011;2933;52.302;8.134;2022-11-14T15:07:04;13.57;;;7.97;;
5813;SDS011;2933;52.302;8.134;2022-11-14T15:12:06;14.53;;;8.50;;
5813;SDS011;2933;52.302;8.134;2022-11-14T15:17:09;13.30;;;8.30;;
5813;SDS011;2933;52.302;8.134;2022-11-14T15:22:23;14.00;;;7.50;;
5813;SDS011;2933;52.302;8.134;2022-11-14T15:27:28;14.63;;;7.47;;
5813;SDS011;2933;52.302;8.134;2022-11-14T15:32:31;11.70;;;7.47;;
5813;SDS011;2933;52.302;8.134;2022-11-14T15:37:35;13.67;;;7.87;;
5813;SDS011;2933;52.302;8.134;2022-11-14T15:42:36;12.30;;;7.60;;
5813;SDS011;2933;52.302;8.134;2022-11-14T15:47:38;12.97;;;7.90;;
5813;SDS011;2933;52.302;8.134;2022-11-14T15:52:45;15.50;;;8.47;;
5813;SDS011;2933;52.302;8.134;2022-11-14T15:57:49;12.67;;;7.93;;
5813;SDS011;2933;52.302;8.134;2022-11-14T16:02:51;13.83;;;8.40;;
5813;SDS011;2933;52.302;8.134;2022-11-14T16:07:57;16.87;;;7.80;;
5813;SDS011;2933;52.302;8.134;2022-11-14T16:12:59;12.23;;;8.23;;
5813;SDS011;2933;52.302;8.134;2022-11-14T16:18:00;13.70;;;7.63;;
5813;SDS011;2933;52.302;8.134;2022-11-14T16:23:05;16.13;;;8.60;;
5813;SDS011;2933;52.302;8.134;2022-11-14T16:28:09;15.97;;;9.13;;
5813;SDS011;2933;52.302;8.134;2022-11-14T16:33:10;20.90;;;8.93;;
5813;SDS011;2933;52.302;8.134;2022-11-14T16:38:13;14.70;;;8.80;;
5813;SDS011;2933;52.302;8.134;2022-11-14T16:43:15;18.27;;;9.77;;
5813;SDS011;2933;52.302;8.134;2022-11-14T16:48:16;18.23;;;10.10;;
5813;SDS011;2933;52.302;8.134;2022-11-14T16:53:23;24.20;;;11.20;;
5813;SDS011;2933;52.302;8.134;2022-11-14T16:58:27;21.23;;;10.20;;
5813;SDS011;2933;52.302;8.134;2022-11-14T17:03:29;20.93;;;11.20;;
5813;SDS011;2933;52.302;8.134;2022-11-14T17:08:32;14.40;;;9.93;;
5813;SDS011;2933;52.302;8.134;2022-11-14T17:13:34;18.80;;;10.67;;
5813;SDS011;2933;52.302;8.134;2022-11-14T17:18:35;16.60;;;9.90;;
5813;SDS011;2933;52.302;8.134;2022-11-14T17:23:38;14.93;;;8.47;;
5813;SDS011;2933;52.302;8.134;2022-11-14T17:28:40;17.17;;;9.70;;
5813;SDS011;2933;52.302;8.134;2022-11-14T17:33:42;14.27;;;8.63;;
5813;SDS011;2933;52.302;8.134;2022-11-14T17:38:45;15.70;;;8.70;;
5813;SDS011;2933;52.302;8.134;2022-11-14T17:43:50;16.93;;;10.33;;
5813;SDS011;2933;52.302;8.134;2022-11-14T17:48:52;23.40;;;9.27;;
5813;SDS011;2933;52.302;8.134;2022-11-14T17:53:55;16.73;;;9.40;;
5813;SDS011;2933;52.302;8.134;2022-11-14T17:58:56;14.97;;;8.80;;
5813;SDS011;2933;52.302;8.134;2022-11-14T18:03:58;14.77;;;9.17;;
5813;SDS011;2933;52.302;8.134;2022-11-14T18:09:01;16.93;;;8.90;;
5813;SDS011;2933;52.302;8.134;2022-11-14T18:14:04;20.40;;;10.20;;
5813;SDS011;2933;52.302;8.134;2022-11-14T18:19:05;17.80;;;10.53;;
5813;SDS011;2933;52.302;8.134;2022-11-14T18:24:11;18.07;;;9.87;;
5813;SDS011;2933;52.302;8.134;2022-11-14T18:29:13;16.27;;;9.73;;
5813;SDS011;2933;52.302;8.134;2022-11-14T18:34:16;14.50;;;9.00;;
5813;SDS011;2933;52.302;8.134;2022-11-14T18:39:20;18.87;;;10.30;;
5813;SDS011;2933;52.302;8.134;2022-11-14T18:44:21;18.80;;;10.57;;
5813;SDS011;2933;52.302;8.134;2022-11-14T18:49:23;26.00;;;11.80;;
5813;SDS011;2933;52.302;8.134;2022-11-14T18:54:28;22.43;;;11.50;;
5813;SDS011;2933;52.302;8.134;2022-11-14T18:59:30;23.00;;;10.90;;
5813;SDS011;2933;52.302;8.134;2022-11-14T19:04:31;19.83;;;11.20;;
5813;SDS011;2933;52.302;8.134;2022-11-14T19:09:35;27.13;;;11.47;;
5813;SDS011;2933;52.302;8.134;2022-11-14T19:14:38;18.87;;;10.53;;
5813;SDS011;2933;52.302;8.134;2022-11-14T19:19:39;22.90;;;11.87;;
5813;SDS011;2933;52.302;8.134;2022-11-14T19:24:42;19.07;;;10.70;;
5813;SDS011;2933;52.302;8.134;2022-11-14T19:29:45;20.30;;;10.77;;
5813;SDS011;2933;52.302;8.134;2022-11-14T19:34:46;19.17;;;10.50;;
5813;SDS011;2933;52.302;8.134;2022-11-14T19:39:49;22.93;;;11.37;;
5813;SDS011;2933;52.302;8.134;2022-11-14T19:44:54;19.97;;;10.57;;
5813;SDS011;2933;52.302;8.134;2022-11-14T19:49:55;15.60;;;10.07;;
5813;SDS011;2933;52.302;8.134;2022-11-14T19:54:58;20.13;;;9.70;;
5813;SDS011;2933;52.302;8.134;2022-11-14T20:00:00;18.63;;;10.40;;
5813;SDS011;2933;52.302;8.134;2022-11-14T20:05:01;23.43;;;11.00;;
5813;SDS011;2933;52.302;8.134;2022-11-14T20:10:05;33.50;;;13.37;;
5813;SDS011;2933;52.302;8.134;2022-11-14T20:15:08;22.00;;;11.40;;
5813;SDS011;2933;52.302;8.134;2022-11-14T20:20:10;15.00;;;9.13;;
5813;SDS011;2933;52.302;8.134;2022-11-14T20:25:13;16.70;;;9.70;;
5813;SDS011;2933;52.302;8.134;2022-11-14T20:30:16;20.57;;;10.30;;
5813;SDS011;2933;52.302;8.134;2022-11-14T20:35:17;19.70;;;10.20;;
5813;SDS011;2933;52.302;8.134;2022-11-14T20:40:20;16.20;;;10.87;;
5813;SDS011;2933;52.302;8.134;2022-11-14T20:45:22;15.90;;;9.63;;
5813;SDS011;2933;52.302;8.134;2022-11-14T20:50:24;15.40;;;8.80;;
5813;SDS011;2933;52.302;8.134;2022-11-14T20:55:27;20.43;;;10.13;;
5813;SDS011;2933;52.302;8.134;2022-11-14T21:00:28;15.27;;;8.77;;
5813;SDS011;2933;52.302;8.134;2022-11-14T21:05:30;18.13;;;10.13;;
5813;SDS011;2933;52.302;8.134;2022-11-14T21:10:36;16.27;;;10.27;;
5813;SDS011;2933;52.302;8.134;2022-11-14T21:15:47;15.73;;;9.80;;
5813;SDS011;2933;52.302;8.134;2022-11-14T21:20:56;14.57;;;9.00;;
5813;SDS011;2933;52.302;8.134;2022-11-14T21:26:04;14.67;;;9.50;;
5813;SDS011;2933;52.302;8.134;2022-11-14T21:31:14;30.70;;;11.83;;
5813;SDS011;2933;52.302;8.134;2022-11-14T21:36:17;20.53;;;10.77;;
5813;SDS011;2933;52.302;8.134;2022-11-14T21:41:21;58.30;;;18.43;;
5813;SDS011;2933;52.302;8.134;2022-11-14T21:46:26;57.23;;;18.40;;
5813;SDS011;2933;52.302;8.134;2022-11-14T21:51:28;40.50;;;14.93;;
5813;SDS011;2933;52.302;8.134;2022-11-14T21:56:32;44.77;;;14.70;;
5813;SDS011;2933;52.302;8.134;2022-11-14T22:01:36;30.40;;;13.60;;
5813;SDS011;2933;52.302;8.134;2022-11-14T22:06:55;34.03;;;14.30;;
5813;SDS011;2933;52.302;8.134;2022-11-14T22:11:58;32.77;;;13.60;;
5813;SDS011;2933;52.302;8.134;2022-11-14T22:17:00;25.43;;;12.00;;
5813;SDS011;2933;52.302;8.134;2022-11-14T22:22:02;26.57;;;11.50;;
5813;SDS011;2933;52.302;8.134;2022-11-14T22:27:05;19.77;;;9.97;;
5813;SDS011;2933;52.302;8.134;2022-11-14T22:32:06;25.20;;;11.00;;
5813;SDS011;2933;52.302;8.134;2022-11-14T22:37:08;22.80;;;11.40;;
5813;SDS011;2933;52.302;8.134;2022-11-14T22:42:11;22.23;;;12.20;;
5813;SDS011;2933;52.302;8.134;2022-11-14T22:47:12;30.50;;;12.20;;
5813;SDS011;2933;52.302;8.134;2022-11-14T22:52:14;19.33;;;11.20;;
5813;SDS011;2933;52.302;8.134;2022-11-14T22:57:16;19.87;;;11.13;;
5813;SDS011;2933;52.302;8.134;2022-11-14T23:02:18;18.73;;;10.77;;
5813;SDS011;2933;52.302;8.134;2022-11-14T23:07:19;21.93;;;11.30;;
5813;SDS011;2933;52.302;8.134;2022-11-14T23:12:22;20.60;;;10.23;;
5813;SDS011;2933;52.302;8.134;2022-11-14T23:17:24;20.37;;;10.30;;
5813;SDS011;2933;52.302;8.134;2022-11-14T23:22:26;21.10;;;10.30;;
5813;SDS011;2933;52.302;8.134;2022-11-14T23:27:29;16.10;;;9.80;;
5813;SDS011;2933;52.302;8.134;2022-11-14T23:32:30;18.93;;;10.03;;
5813;SDS011;2933;52.302;8.134;2022-11-14T23:37:32;18.73;;;9.83;;
5813;SDS011;2933;52.302;8.134;2022-11-14T23:42:35;16.67;;;9.97;;
5813;SDS011;2933;52.302;8.134;2022-11-14T23:47:37;15.53;;;9.47;;
5813;SDS011;2933;52.302;8.134;2022-11-14T23:52:38;18.10;;;9.97;;
5813;SDS011;2933;52.302;8.134;2022-11-14T23:57:41;21.13;;;10.40;;
